Time;durP1;ratioP1;P1;durP2;ratioP2;P2;SDS_P1;SDS_P2;PMS_P1;PMS_P2;Temp;Humidity;BMP_temperature;BMP_pressure;BME280_temperature;BME280_humidity;BME280_pressure;Samples;Min_cycle;Max_cycle;Signal;HPM_P1;HPM_P2
2022/05/31 00:00:11;;;;;;;;;2.00;2.00;;;;;18.03;36.52;100459.84;5058351;28;45591;-79
2022/05/31 00:02:37;;;;;;;;;2.75;2.75;;;;;17.96;36.79;100454.38;5059266;28;45632;-80
2022/05/31 00:05:03;;;;;;;;;2.50;2.00;;;;;17.91;36.34;100450.53;5060866;28;46706;-79
2022/05/31 00:07:29;;;;;;;;;3.50;2.00;;;;;17.86;36.67;100439.59;5060632;28;46384;-78
2022/05/31 00:09:54;;;;;;;;;2.50;2.00;;;;;17.94;36.87;100455.50;5060387;28;45559;-80
2022/05/31 00:12:19;;;;;;;;;2.00;2.00;;;;;17.83;36.72;100442.53;5059274;28;45668;-80
2022/05/31 00:14:49;;;;;;;;;3.50;2.50;;;;;17.93;36.50;100459.13;5058073;28;45657;-80
2022/05/31 00:20:36;;;;;;;;;2.00;2.00;;;;;17.90;36.82;100457.66;5059325;28;45651;-80
2022/05/31 00:23:01;;;;;;;;;2.25;2.00;;;;;17.89;36.53;100461.28;5059335;28;45613;-79
2022/05/31 00:25:27;;;;;;;;;3.00;3.00;;;;;17.76;36.86;100444.97;5058809;28;46630;-79
2022/05/31 00:27:52;;;;;;;;;2.75;2.75;;;;;17.77;36.53;100445.81;5055467;28;46548;-80
2022/05/31 00:30:18;;;;;;;;;2.50;2.50;;;;;17.68;36.41;100437.03;5055351;28;45570;-79
2022/05/31 00:32:49;;;;;;;;;3.00;3.00;;;;;17.79;36.69;100457.94;5055641;28;45668;-80
2022/05/31 00:35:20;;;;;;;;;3.00;3.00;;;;;17.72;36.74;100448.94;5036641;28;47835;-80
2022/05/31 00:37:46;;;;;;;;;3.00;3.00;;;;;17.70;37.10;100450.94;5055326;28;46255;-78
2022/05/31 00:40:15;;;;;;;;;2.75;2.75;;;;;17.81;36.94;100463.91;5055172;28;45532;-79
2022/05/31 00:42:56;;;;;;;;;3.00;3.00;;;;;17.79;36.98;100452.63;5055468;28;45578;-80
2022/05/31 00:45:44;;;;;;;;;3.00;2.50;;;;;17.80;37.00;100454.31;5055065;28;46394;-78
2022/05/31 00:48:45;;;;;;;;;3.00;3.00;;;;;17.80;37.05;100459.59;5055107;28;45932;-79
2022/05/31 00:51:16;;;;;;;;;2.00;2.00;;;;;17.80;36.83;100462.25;5054836;28;45574;-79
2022/05/31 00:53:49;;;;;;;;;3.00;3.00;;;;;17.79;37.29;100449.16;5055187;28;45705;-80
2022/05/31 00:56:20;;;;;;;;;3.00;3.00;;;;;17.74;37.34;100449.63;5033537;28;46609;-80
2022/05/31 00:59:10;;;;;;;;;2.25;2.25;;;;;17.78;36.91;100456.28;5046932;28;45818;-80
2022/05/31 01:01:38;;;;;;;;;3.00;3.00;;;;;17.76;36.86;100452.94;5054863;28;45574;-80
2022/05/31 01:04:05;;;;;;;;;2.00;2.00;;;;;17.67;37.01;100431.88;5036835;28;45871;-78
2022/05/31 01:06:32;;;;;;;;;3.00;3.00;;;;;17.71;37.50;100441.16;5035580;28;48824;-80
2022/05/31 01:08:59;;;;;;;;;2.00;2.00;;;;;17.71;37.16;100430.56;5054764;28;46234;-80
2022/05/31 01:11:28;;;;;;;;;3.25;3.25;;;;;17.73;37.01;100441.84;5054763;28;45782;-78
2022/05/31 01:13:55;;;;;;;;;3.50;2.00;;;;;17.67;37.11;100435.34;5054784;28;45605;-79
2022/05/31 01:16:21;;;;;;;;;2.50;2.50;;;;;17.73;37.26;100433.88;5054674;28;46550;-80
2022/05/31 01:18:47;;;;;;;;;2.00;2.00;;;;;17.69;37.47;100438.69;5054605;28;45933;-79
2022/05/31 01:21:13;;;;;;;;;2.75;2.00;;;;;17.75;37.03;100443.34;5036173;28;45658;-80
2022/05/31 01:23:57;;;;;;;;;2.00;2.00;;;;;17.67;37.63;100434.50;5055032;28;45605;-79
2022/05/31 01:26:54;;;;;;;;;2.00;2.00;;;;;17.77;37.36;100446.66;5054498;28;45561;-80
2022/05/31 01:29:25;;;;;;;;;3.00;2.75;;;;;17.77;37.48;100445.81;5054401;28;45770;-80
2022/05/31 01:31:53;;;;;;;;;2.00;2.00;;;;;17.77;37.55;100444.00;5052968;28;45611;-80
2022/05/31 01:34:24;;;;;;;;;3.00;3.00;;;;;17.77;37.25;100448.47;5054702;28;45540;-80
2022/05/31 01:36:54;;;;;;;;;3.00;2.00;;;;;17.76;37.53;100449.47;5054303;28;46530;-80
2022/05/31 01:39:41;;;;;;;;;2.00;2.00;;;;;17.68;37.48;100437.03;5054470;28;45688;-80
2022/05/31 01:42:22;;;;;;;;;3.00;2.00;;;;;17.72;37.00;100448.13;5035870;28;45689;-79
2022/05/31 01:45:21;;;;;;;;;2.00;2.00;;;;;17.74;37.52;100443.50;5046045;28;45657;-79
2022/05/31 01:47:46;;;;;;;;;2.00;2.00;;;;;17.70;37.50;100435.06;4991816;28;46482;-79
2022/05/31 01:50:17;;;;;;;;;3.00;2.00;;;;;17.65;37.35;100426.75;4992359;28;46190;-79
2022/05/31 01:52:44;;;;;;;;;3.50;3.00;;;;;17.72;37.11;100442.81;4992300;28;45699;-79
2022/05/31 01:55:10;;;;;;;;;2.25;1.25;;;;;17.74;37.09;100443.50;4992154;28;45725;-78
2022/05/31 01:57:38;;;;;;;;;2.75;2.00;;;;;17.68;37.59;100436.19;4975244;28;48291;-79
2022/05/31 02:00:08;;;;;;;;;2.00;2.00;;;;;17.74;37.64;100446.97;4992233;28;46047;-79
2022/05/31 02:02:34;;;;;;;;;3.00;3.00;;;;;17.71;37.11;100446.44;4991969;28;45678;-81
2022/05/31 02:04:59;;;;;;;;;1.00;1.00;;;;;17.76;36.93;100449.47;4992232;28;45738;-79
2022/05/31 02:07:26;;;;;;;;;2.00;2.00;;;;;17.73;37.25;100455.09;4992030;28;46417;-80
2022/05/31 02:09:53;;;;;;;;;2.50;2.50;;;;;17.72;37.23;100456.06;4991512;28;46036;-79
2022/05/31 02:12:21;;;;;;;;;3.00;3.00;;;;;17.72;37.09;100454.25;5009919;28;45877;-80
2022/05/31 02:14:47;;;;;;;;;3.00;2.00;;;;;17.57;37.51;100434.63;5011700;28;45590;-79
2022/05/31 02:17:13;;;;;;;;;2.00;2.00;;;;;17.66;37.54;100448.75;5011542;28;45593;-80
2022/05/31 02:19:39;;;;;;;;;3.00;2.00;;;;;17.66;37.17;100441.63;5015323;28;46042;-78
2022/05/31 02:22:08;;;;;;;;;1.75;1.75;;;;;17.67;37.57;100442.47;5031822;28;45778;-79
2022/05/31 02:24:34;;;;;;;;;2.00;2.00;;;;;17.72;37.13;100445.47;5027173;28;45698;-79
2022/05/31 02:27:01;;;;;;;;;2.00;2.00;;;;;17.72;37.18;100448.94;5037181;28;45570;-80
2022/05/31 02:29:29;;;;;;;;;2.00;2.00;;;;;17.68;37.45;100441.47;5037046;28;46229;-80
2022/05/31 02:31:57;;;;;;;;;3.00;2.00;;;;;17.67;37.34;100437.16;5037075;28;45684;-79
2022/05/31 02:34:26;;;;;;;;;3.00;3.00;;;;;17.74;37.57;100448.81;5037409;28;45592;-80
2022/05/31 02:36:51;;;;;;;;;2.75;2.00;;;;;17.68;37.58;100450.25;5036801;28;45519;-80
2022/05/31 02:39:18;;;;;;;;;3.00;3.00;;;;;17.64;37.45;100445.44;5037583;28;46031;-79
2022/05/31 02:41:44;;;;;;;;;2.25;2.00;;;;;17.72;37.68;100459.56;5018842;28;45910;-79
2022/05/31 02:44:10;;;;;;;;;2.75;2.75;;;;;17.70;37.24;100458.91;5037064;28;45812;-77
2022/05/31 02:46:36;;;;;;;;;1.00;1.00;;;;;17.72;37.39;100451.59;5036943;28;46007;-78
2022/05/31 02:52:23;;;;;;;;;2.00;2.00;;;;;17.71;37.10;100441.97;5036419;28;45751;-80
2022/05/31 02:54:49;;;;;;;;;2.00;2.00;;;;;17.73;37.50;100445.31;5037164;28;45762;-80
2022/05/31 02:57:14;;;;;;;;;2.75;2.00;;;;;17.70;37.48;100443.00;5036756;28;46148;-80
2022/05/31 02:59:40;;;;;;;;;3.00;3.00;;;;;17.72;37.21;100442.81;5036558;28;45767;-79
2022/05/31 03:02:06;;;;;;;;;2.25;2.00;;;;;17.68;37.21;100425.59;5036749;28;45681;-79
2022/05/31 03:04:31;;;;;;;;;2.75;2.75;;;;;17.71;37.10;100430.56;5036649;28;45732;-81
2022/05/31 03:07:01;;;;;;;;;2.00;2.00;;;;;17.59;37.24;100408.81;5018523;28;48243;-79
2022/05/31 03:09:28;;;;;;;;;3.00;3.00;;;;;17.67;37.48;100429.22;5037330;28;45508;-79
2022/05/31 03:12:13;;;;;;;;;2.00;2.00;;;;;17.69;37.49;100448.44;5037685;28;45649;-79
2022/05/31 03:14:56;;;;;;;;;1.50;1.00;;;;;17.54;36.88;100440.25;5035996;28;45476;-81
2022/05/31 03:17:36;;;;;;;;;3.25;3.25;;;;;17.60;38.14;100453.69;5020004;28;48412;-81
2022/05/31 03:20:08;;;;;;;;;7.00;5.50;;;;;17.49;38.95;100447.84;5036577;28;46000;-81
2022/05/31 03:22:41;;;;;;;;;4.75;4.75;;;;;17.48;39.00;100446.16;5036579;28;45780;-80
2022/05/31 03:25:15;;;;;;;;;6.00;5.00;;;;;17.40;39.62;100431.03;5036976;28;45773;-80
2022/05/31 03:27:40;;;;;;;;;4.00;4.00;;;;;17.29;40.17;100425.19;5036518;28;45513;-81
2022/05/31 03:30:06;;;;;;;;;5.00;4.25;;;;;17.31;39.58;100425.88;5035524;28;46419;-81
2022/05/31 03:32:35;;;;;;;;;6.00;5.00;;;;;17.36;39.86;100439.47;5036365;28;45567;-81
2022/05/31 03:35:01;;;;;;;;;5.00;5.00;;;;;17.30;39.87;100426.84;5036600;28;45816;-81
2022/05/31 03:37:27;;;;;;;;;6.00;5.00;;;;;17.27;40.06;100430.66;5036159;28;45705;-80
2022/05/31 03:39:52;;;;;;;;;9.00;6.00;;;;;17.29;40.20;100454.31;5036138;28;46353;-79
2022/05/31 03:42:18;;;;;;;;;4.50;4.50;;;;;17.23;40.14;100452.28;5036163;28;45682;-79
2022/05/31 03:44:43;;;;;;;;;6.00;6.00;;;;;17.13;40.56;100450.56;5036457;28;45639;-80
2022/05/31 03:47:09;;;;;;;;;6.25;4.75;;;;;16.96;41.18;100435.56;5017959;28;47288;-80
2022/05/31 03:52:56;;;;;;;;;5.25;5.00;;;;;16.82;42.42;100446.69;5035670;28;45684;-79
2022/05/31 03:55:21;;;;;;;;;5.00;4.75;;;;;16.64;42.71;100436.13;5036314;28;45672;-81
2022/05/31 03:57:48;;;;;;;;;5.00;5.00;;;;;16.65;42.86;100451.03;5035989;28;46681;-79
2022/05/31 04:00:14;;;;;;;;;5.50;5.50;;;;;16.63;42.93;100458.25;5036045;28;45692;-80
2022/05/31 04:02:40;;;;;;;;;7.25;6.75;;;;;16.44;43.14;100434.59;5035942;28;45765;-80
2022/05/31 04:05:06;;;;;;;;;6.00;5.00;;;;;16.45;43.15;100436.25;5036064;28;45757;-80
2022/05/31 04:07:32;;;;;;;;;7.75;6.25;;;;;16.49;43.28;100442.91;5035323;28;46965;-81
2022/05/31 04:09:57;;;;;;;;;7.00;6.00;;;;;16.47;43.17;100444.84;5035669;28;46045;-80
2022/05/31 04:12:23;;;;;;;;;7.00;4.75;;;;;16.46;43.20;100440.56;5054110;28;45819;-82
2022/05/31 04:14:48;;;;;;;;;6.75;5.25;;;;;16.40;43.18;100422.66;5055885;28;45665;-79
2022/05/31 04:17:14;;;;;;;;;7.00;5.00;;;;;16.41;43.06;100424.31;5039045;28;48594;-79
2022/05/31 04:25:47;;;;;;;;;6.00;5.25;;;;;16.41;43.46;100439.38;5055502;28;45594;-81
2022/05/31 04:28:12;;;;;;;;;5.50;5.00;;;;;16.37;43.54;100437.00;5055058;28;45653;-81
2022/05/31 04:30:42;;;;;;;;;6.50;5.00;;;;;16.36;43.53;100439.78;5055485;28;45514;-79
2022/05/31 04:33:07;;;;;;;;;5.00;4.25;;;;;16.37;43.66;100444.09;5055663;28;45771;-80
2022/05/31 04:35:32;;;;;;;;;5.00;5.00;;;;;16.31;43.78;100447.34;5056055;28;45570;-81
2022/05/31 04:38:01;;;;;;;;;6.00;5.00;;;;;16.19;43.96;100425.59;5055453;28;45843;-79
2022/05/31 04:40:28;;;;;;;;;5.50;5.50;;;;;16.26;44.12;100436.38;5055212;28;46124;-80
2022/05/31 04:42:54;;;;;;;;;6.50;5.75;;;;;16.25;44.29;100442.66;5055442;28;45609;-79
2022/05/31 04:45:20;;;;;;;;;6.00;5.50;;;;;16.19;44.69;100448.56;5055265;28;45795;-80
2022/05/31 04:47:45;;;;;;;;;6.00;5.75;;;;;16.10;45.15;100441.50;5055182;28;46380;-80
2022/05/31 04:53:33;;;;;;;;;6.00;6.00;;;;;16.08;45.51;100456.69;5055301;28;45987;-80
2022/05/31 04:56:07;;;;;;;;;5.75;5.75;;;;;16.01;45.40;100456.44;5037190;28;45533;-80
2022/05/31 04:58:33;;;;;;;;;7.25;5.75;;;;;15.96;45.47;100450.78;5054773;28;46853;-81
2022/05/31 05:01:01;;;;;;;;;5.50;5.00;;;;;15.97;45.20;100451.59;5055055;28;46277;-80
2022/05/31 05:03:29;;;;;;;;;5.00;5.00;;;;;16.01;45.72;100466.19;5055252;28;45663;-80
2022/05/31 05:06:04;;;;;;;;;4.00;3.00;;;;;15.89;45.68;100444.41;5055231;28;45596;-80
2022/05/31 05:08:31;;;;;;;;;3.75;3.50;;;;;15.97;45.88;100464.81;5055025;28;45578;-82
2022/05/31 05:10:58;;;;;;;;;5.50;5.50;;;;;16.00;45.64;100470.63;5054573;28;46214;-80
2022/05/31 05:13:24;;;;;;;;;7.25;6.50;;;;;16.00;45.68;100467.16;5054983;28;45866;-80
2022/05/31 05:15:51;;;;;;;;;5.00;5.00;;;;;15.96;45.70;100461.34;5054999;28;45699;-81
2022/05/31 05:18:17;;;;;;;;;7.00;6.00;;;;;16.01;46.03;100482.03;5054787;28;46431;-80
2022/05/31 05:24:04;;;;;;;;;5.00;5.00;;;;;15.98;45.93;100475.22;5054900;28;45822;-79
2022/05/31 05:26:30;;;;;;;;;7.50;7.00;;;;;15.90;46.09;100470.69;5055068;28;45731;-80
2022/05/31 05:31:41;;;;;;;;;7.25;7.00;;;;;15.87;46.06;100473.59;5039212;28;45602;-79
2022/05/31 05:34:08;;;;;;;;;6.00;5.75;;;;;15.90;46.31;100475.13;5058740;28;45733;-80
2022/05/31 05:36:34;;;;;;;;;7.00;6.00;;;;;15.94;45.98;100482.63;5059711;28;45586;-78
2022/05/31 05:38:59;;;;;;;;;6.50;6.00;;;;;15.90;46.33;100480.41;5055695;28;46458;-81
2022/05/31 05:41:28;;;;;;;;;8.75;7.25;;;;;15.88;46.48;100480.56;5054657;28;45659;-79
2022/05/31 05:43:54;;;;;;;;;6.00;6.00;;;;;15.77;46.27;100462.25;5054697;28;45623;-79
2022/05/31 05:46:24;;;;;;;;;7.25;7.00;;;;;15.82;46.82;100470.56;5054612;28;45696;-79
2022/05/31 05:48:51;;;;;;;;;7.75;7.00;;;;;15.93;46.41;100483.59;5054659;28;45687;-78
2022/05/31 05:54:38;;;;;;;;;6.25;5.75;;;;;16.02;45.97;100502.19;5053836;28;45806;-79
2022/05/31 05:57:03;;;;;;;;;9.00;6.00;;;;;16.03;45.97;100498.59;5054789;28;45783;-79
2022/05/31 05:59:29;;;;;;;;;7.00;7.00;;;;;15.99;46.35;100489.25;5054446;28;46467;-80
2022/05/31 06:02:08;;;;;;;;;6.25;6.25;;;;;16.07;46.07;100497.31;5054806;28;45533;-78
2022/05/31 06:04:43;;;;;;;;;6.00;6.00;;;;;16.12;46.14;100509.09;5054325;28;45664;-79
2022/05/31 06:07:27;;;;;;;;;6.75;6.50;;;;;16.13;46.17;100499.38;5054411;28;45519;-81
2022/05/31 06:10:10;;;;;;;;;6.00;6.00;;;;;16.05;46.38;100486.88;5054847;28;46783;-78
2022/05/31 06:12:40;;;;;;;;;7.50;7.00;;;;;16.05;45.91;100484.22;5052726;28;45886;-78
2022/05/31 06:15:12;;;;;;;;;12.00;11.25;;;;;16.21;45.97;100502.94;5053930;28;45771;-79
2022/05/31 06:17:43;;;;;;;;;5.00;5.00;;;;;16.25;45.81;100500.81;5035465;28;45538;-81
2022/05/31 06:20:10;;;;;;;;;6.00;6.00;;;;;16.27;45.77;100496.22;5053544;28;45835;-79
2022/05/31 06:22:41;;;;;;;;;7.50;6.50;;;;;16.26;45.79;100490.09;5052356;28;46663;-80
2022/05/31 06:25:08;;;;;;;;;7.00;6.00;;;;;16.26;45.95;100489.25;5034993;28;45983;-80
2022/05/31 06:27:34;;;;;;;;;7.50;6.50;;;;;16.39;45.68;100513.53;5035203;28;45992;-81
2022/05/31 06:29:59;;;;;;;;;8.00;7.00;;;;;16.30;45.67;100488.81;5053226;28;45808;-79
2022/05/31 06:32:25;;;;;;;;;5.75;5.75;;;;;16.47;45.58;100516.25;5053317;28;46449;-80
2022/05/31 06:34:50;;;;;;;;;8.25;7.00;;;;;16.50;45.90;100515.16;5053156;28;45581;-81
2022/05/31 06:37:17;;;;;;;;;11.00;9.00;;;;;16.54;45.74;100512.06;5053603;28;45609;-81
2022/05/31 06:39:44;;;;;;;;;7.75;7.00;;;;;16.58;45.41;100516.06;5053633;28;45744;-78
2022/05/31 06:42:11;;;;;;;;;8.00;6.75;;;;;16.62;45.68;100517.47;5056734;28;46327;-81
2022/05/31 06:44:40;;;;;;;;;9.25;8.25;;;;;16.65;45.51;100514.50;5057130;28;45632;-83
2022/05/31 06:47:05;;;;;;;;;7.00;6.00;;;;;16.60;45.47;100494.78;5037031;28;45858;-82
2022/05/31 06:58:43;;;;;;;;;7.00;7.00;;;;;16.84;44.81;100508.25;5057438;28;45650;-84
2022/05/31 07:01:09;;;;;;;;;7.00;6.00;;;;;16.89;44.96;100513.91;5055824;28;46434;-79
2022/05/31 07:03:34;;;;;;;;;6.50;6.50;;;;;16.95;44.60;100509.84;5054058;28;46136;-80
2022/05/31 07:06:00;;;;;;;;;6.25;5.00;;;;;17.01;44.77;100509.19;5055824;28;45700;-76
2022/05/31 07:08:26;;;;;;;;;8.75;7.75;;;;;16.95;44.09;100501.91;5056837;28;45934;-77
2022/05/31 07:10:51;;;;;;;;;7.75;7.75;;;;;17.03;44.09;100513.38;5056174;28;46429;-78
2022/05/31 07:13:18;;;;;;;;;9.50;7.75;;;;;17.03;44.06;100512.53;5057809;28;46090;-83
2022/05/31 07:15:44;;;;;;;;;6.00;6.00;;;;;17.07;44.09;100522.66;5055981;28;45611;-83
2022/05/31 07:18:10;;;;;;;;;6.00;5.00;;;;;17.05;44.06;100513.22;5057562;28;45532;-82
2022/05/31 07:20:35;;;;;;;;;7.00;6.00;;;;;17.09;44.32;100514.56;5039144;28;48512;-83
2022/05/31 07:23:00;;;;;;;;;5.75;5.50;;;;;17.11;44.37;100508.13;5057232;28;45639;-83
2022/05/31 07:25:26;;;;;;;;;4.75;4.75;;;;;17.12;43.53;100509.78;5057219;28;45830;-82
2022/05/31 07:27:52;;;;;;;;;4.25;4.25;;;;;17.14;43.13;100514.94;5057592;28;45580;-82
2022/05/31 07:30:17;;;;;;;;;4.50;4.50;;;;;17.16;42.65;100510.34;5057980;28;46509;-83
2022/05/31 07:32:43;;;;;;;;;5.50;4.00;;;;;17.12;42.47;100508.97;5057823;28;45763;-81
2022/05/31 07:35:08;;;;;;;;;6.25;5.50;;;;;17.08;42.84;100508.44;5057774;28;45787;-80
2022/05/31 07:37:35;;;;;;;;;7.00;6.00;;;;;17.17;43.06;100522.56;5056938;28;45869;-83
2022/05/31 07:40:01;;;;;;;;;7.00;7.00;;;;;17.25;42.71;100525.28;5056131;28;46651;-79
2022/05/31 07:42:26;;;;;;;;;7.50;6.25;;;;;17.17;43.05;100515.47;5055958;28;46188;-79
2022/05/31 07:44:54;;;;;;;;;7.75;7.00;;;;;17.24;42.85;100522.78;5055967;28;45535;-80
2022/05/31 07:47:20;;;;;;;;;5.50;5.00;;;;;17.22;42.84;100520.28;5037965;28;45630;-80
2022/05/31 07:49:45;;;;;;;;;7.00;5.75;;;;;17.25;42.60;100511.22;5056116;28;45793;-81
2022/05/31 07:55:32;;;;;;;;;5.50;5.50;;;;;17.39;42.86;100516.78;5055827;28;45849;-77
2022/05/31 08:00:42;;;;;;;;;5.50;5.00;;;;;17.49;43.90;100532.59;5055801;28;46189;-79
2022/05/31 08:03:08;;;;;;;;;5.75;5.50;;;;;17.51;43.52;100528.78;5055917;28;45470;-80
2022/05/31 08:05:38;;;;;;;;;6.00;6.00;;;;;17.56;43.19;100525.66;5056105;28;45466;-80
2022/05/31 08:08:04;;;;;;;;;6.25;5.50;;;;;17.62;43.21;100533.03;5038155;28;45579;-78
2022/05/31 08:10:30;;;;;;;;;5.75;5.00;;;;;17.65;42.88;100524.78;5055532;28;45684;-79
2022/05/31 08:12:55;;;;;;;;;5.50;5.00;;;;;17.71;43.07;100529.44;5037740;28;46234;-81
2022/05/31 08:15:20;;;;;;;;;9.25;6.25;;;;;17.68;42.76;100520.97;5055335;28;45846;-79
2022/05/31 08:17:46;;;;;;;;;4.75;4.00;;;;;17.76;42.95;100529.00;5037489;28;45757;-80
2022/05/31 08:20:12;;;;;;;;;5.50;4.00;;;;;17.80;42.81;100525.88;5055692;28;46305;-81
2022/05/31 08:26:01;;;;;;;;;7.25;7.00;;;;;17.79;42.64;100516.25;5055637;28;45783;-81
2022/05/31 08:28:27;;;;;;;;;7.00;6.25;;;;;17.86;42.90;100530.53;5055986;28;45499;-80
2022/05/31 08:30:56;;;;;;;;;5.25;4.00;;;;;17.89;42.96;100524.06;5055483;28;45624;-80
2022/05/31 08:33:24;;;;;;;;;5.50;5.50;;;;;17.81;43.24;100505.50;5055728;28;45629;-82
2022/05/31 08:35:50;;;;;;;;;5.00;4.50;;;;;17.88;42.74;100515.28;5055720;28;45746;-79
2022/05/31 08:38:16;;;;;;;;;5.00;5.00;;;;;17.91;42.19;100519.47;5055743;28;45480;-80
2022/05/31 08:41:18;;;;;;;;;6.00;6.00;;;;;17.94;41.82;100522.59;5055673;28;45468;-78
2022/05/31 08:43:56;;;;;;;;;6.75;5.00;;;;;18.00;41.72;100524.63;4935006;28;46447;-79
2022/05/31 08:46:31;;;;;;;;;4.00;4.00;;;;;18.00;41.28;100524.63;4935167;28;45809;-78
2022/05/31 08:48:58;;;;;;;;;3.25;3.25;;;;;18.04;41.17;100533.09;4935369;28;45694;-81
2022/05/31 08:51:52;;;;;;;;;3.00;2.50;;;;;18.06;41.06;100530.28;4934857;28;45664;-80
2022/05/31 08:57:16;;;;;;;;;3.00;3.00;;;;;18.02;40.15;100525.31;4935097;28;45721;-79
2022/05/31 08:59:51;;;;;;;;;4.50;3.00;;;;;18.08;40.77;100531.81;4934987;28;45634;-81
2022/05/31 09:02:29;;;;;;;;;2.25;2.25;;;;;18.07;40.33;100524.00;4935111;28;47487;-82
2022/05/31 09:05:09;;;;;;;;;2.00;2.00;;;;;18.17;40.08;100528.19;4935020;28;46177;-78
2022/05/31 09:07:43;;;;;;;;;3.75;3.75;;;;;18.22;40.03;100527.69;4935191;28;45832;-82
2022/05/31 09:10:27;;;;;;;;;3.00;3.00;;;;;18.24;39.60;100523.09;4936053;28;45603;-83
2022/05/31 09:12:52;;;;;;;;;3.00;3.00;;;;;18.30;39.34;100523.25;4934586;28;45755;-82
2022/05/31 09:15:41;;;;;;;;;4.00;4.00;;;;;18.34;39.91;100527.25;4934737;28;45619;-80
2022/05/31 09:18:23;;;;;;;;;3.75;3.75;;;;;18.39;39.98;100526.78;4934472;28;45881;-81
2022/05/31 09:24:15;;;;;;;;;5.00;3.00;;;;;18.52;39.08;100523.63;5054543;28;46211;-80
2022/05/31 09:27:05;;;;;;;;;3.00;3.00;;;;;18.54;38.90;100524.31;5054538;28;46352;-80
2022/05/31 09:30:01;;;;;;;;;5.00;5.00;;;;;18.63;38.84;100536.63;5054798;28;45661;-83
2022/05/31 09:32:45;;;;;;;;;4.00;3.00;;;;;18.70;38.07;100535.00;5055397;28;45534;-86
2022/05/31 09:35:22;;;;;;;;;2.75;2.75;;;;;18.74;38.57;100531.84;5037364;28;47372;-83
2022/05/31 09:41:15;;;;;;;;;2.00;2.00;;;;;18.92;37.54;100531.72;5055765;28;45734;-84
2022/05/31 09:44:17;;;;;;;;;2.50;2.50;;;;;18.99;37.05;100530.06;5056487;28;45646;-81
2022/05/31 09:46:45;;;;;;;;;3.00;3.00;;;;;19.08;37.28;100517.63;5056219;28;46199;-85
2022/05/31 09:49:21;;;;;;;;;3.00;3.00;;;;;19.15;37.05;100530.06;5038282;28;48522;-83
2022/05/31 09:51:46;;;;;;;;;2.00;2.00;;;;;19.21;37.47;100523.28;5055515;28;45549;-84
2022/05/31 09:57:06;;;;;;;;;3.00;3.00;;;;;19.37;36.82;100514.44;5054771;28;45645;-83
2022/05/31 09:59:34;;;;;;;;;10.50;8.50;;;;;19.41;36.78;100507.78;5036348;28;47229;-80
2022/05/31 10:02:18;;;;;;;;;2.00;2.00;;;;;19.50;36.05;100509.47;5054552;28;45680;-81
2022/05/31 10:04:44;;;;;;;;;4.00;3.00;;;;;19.47;36.26;100502.69;5054391;28;45610;-83
2022/05/31 10:07:10;;;;;;;;;2.25;2.00;;;;;19.49;34.84;100495.34;5053734;28;46853;-80
2022/05/31 10:09:41;;;;;;;;;2.00;2.00;;;;;19.56;35.67;100512.28;5054153;28;45605;-82
2022/05/31 10:12:15;;;;;;;;;3.00;2.00;;;;;19.63;34.65;100523.91;5053461;28;45902;-81
2022/05/31 10:14:46;;;;;;;;;3.00;3.00;;;;;19.61;34.13;100509.94;5054278;28;45561;-81
2022/05/31 10:17:34;;;;;;;;;2.00;2.00;;;;;19.70;34.04;100518.75;5053704;28;46767;-81
2022/05/31 10:20:23;;;;;;;;;2.00;2.00;;;;;19.76;34.42;100519.91;5053875;28;46105;-81
2022/05/31 10:22:58;;;;;;;;;2.00;2.00;;;;;19.88;34.35;100518.50;5028042;28;45855;-82
2022/05/31 10:25:28;;;;;;;;;2.50;2.50;;;;;19.95;34.20;100520.31;5054190;28;45674;-81
2022/05/31 10:28:05;;;;;;;;;3.50;2.75;;;;;20.00;33.83;100519.81;5054515;28;45690;-79
2022/05/31 10:30:31;;;;;;;;;3.00;2.50;;;;;19.95;33.29;100508.84;5053901;28;45708;-81
2022/05/31 10:33:19;;;;;;;;;2.00;2.00;;;;;20.02;33.30;100513.31;5053649;28;45643;-81
2022/05/31 10:35:46;;;;;;;;;3.00;2.00;;;;;19.96;33.03;100503.38;5053602;28;45797;-80
2022/05/31 10:38:18;;;;;;;;;2.25;2.25;;;;;20.05;33.39;100518.28;5035208;28;48200;-81
2022/05/31 10:40:59;;;;;;;;;2.50;2.00;;;;;19.96;32.68;100510.53;5057064;28;46306;-81
2022/05/31 10:43:39;;;;;;;;;2.50;2.00;;;;;20.06;33.01;100517.28;5056817;28;45588;-82
2022/05/31 10:46:13;;;;;;;;;4.00;3.00;;;;;20.06;33.23;100511.97;5057140;28;45525;-83
2022/05/31 10:48:46;;;;;;;;;2.50;2.00;;;;;20.15;33.42;100520.72;5038387;28;48382;-82
2022/05/31 10:54:56;;;;;;;;;2.00;2.00;;;;;20.26;32.97;100527.50;4994701;28;45694;-80
2022/05/31 10:57:57;;;;;;;;;2.75;2.75;;;;;20.27;33.38;100524.69;4994806;28;45756;-82
2022/05/31 11:00:38;;;;;;;;;3.25;3.00;;;;;20.27;32.76;100519.34;4994656;28;46249;-84
2022/05/31 11:03:07;;;;;;;;;3.75;3.25;;;;;20.32;33.11;100519.69;4994970;28;46080;-83
2022/05/31 11:05:59;;;;;;;;;1.75;1.75;;;;;20.30;33.21;100502.19;4994384;28;45595;-80
2022/05/31 11:12:22;;;;;;;;;1.50;1.25;;;;;20.46;32.67;100531.41;5007520;28;45946;-81
2022/05/31 11:15:26;;;;;;;;;2.25;2.25;;;;;20.45;32.90;100527.94;4994510;28;46346;-80
2022/05/31 11:18:15;;;;;;;;;1.00;0.50;;;;;20.45;32.75;100533.28;4994490;28;45489;-81
2022/05/31 11:20:54;;;;;;;;;2.50;2.00;;;;;20.43;33.05;100529.94;4994662;28;45680;-80
2022/05/31 11:27:16;;;;;;;;;3.75;3.75;;;;;20.32;33.00;100522.34;4994103;28;46129;-81
2022/05/31 11:30:07;;;;;;;;;3.00;3.00;;;;;20.34;33.62;100530.16;4994459;28;45625;-81
2022/05/31 11:32:50;;;;;;;;;4.00;3.75;;;;;20.34;33.10;100531.00;4994127;28;45627;-81
2022/05/31 11:35:22;;;;;;;;;3.00;3.00;;;;;20.34;33.74;100528.34;4994206;28;46453;-81
2022/05/31 11:37:53;;;;;;;;;3.00;2.50;;;;;20.39;33.72;100535.81;4977680;28;47130;-82
2022/05/31 11:40:42;;;;;;;;;3.00;3.00;;;;;20.45;33.49;100540.44;4994489;28;45760;-83
2022/05/31 11:43:41;;;;;;;;;3.00;3.00;;;;;20.51;33.46;100540.53;4994467;28;45733;-82
2022/05/31 11:46:21;;;;;;;;;3.00;3.00;;;;;20.57;33.18;100536.34;4994012;28;46498;-82
2022/05/31 11:48:59;;;;;;;;;2.75;2.50;;;;;20.55;33.44;100543.69;4994178;28;46023;-80
2022/05/31 11:51:37;;;;;;;;;2.00;2.00;;;;;20.56;33.33;100541.88;5010251;28;45784;-80
2022/05/31 11:54:37;;;;;;;;;2.00;2.00;;;;;20.56;32.98;100539.22;5037681;28;45591;-79
2022/05/31 11:57:20;;;;;;;;;4.50;4.25;;;;;20.57;33.29;100536.34;5035680;28;46662;-81
2022/05/31 11:59:59;;;;;;;;;4.75;3.00;;;;;20.57;33.33;100536.34;5035771;28;45813;-80
2022/05/31 12:02:34;;;;;;;;;2.50;2.00;;;;;20.60;33.35;100538.69;5035665;28;45661;-82
2022/05/31 12:05:37;;;;;;;;;3.50;3.00;;;;;20.66;33.28;100537.97;5035598;28;45595;-79
2022/05/31 12:11:35;;;;;;;;;4.25;3.25;;;;;20.82;32.88;100529.06;5012831;28;45957;-80
2022/05/31 12:14:02;;;;;;;;;2.50;2.25;;;;;20.89;32.38;100538.00;5013015;28;45690;-79
2022/05/31 12:16:29;;;;;;;;;4.00;3.50;;;;;20.83;32.07;100525.38;5014965;28;45754;-81
2022/05/31 12:19:29;;;;;;;;;1.00;0.75;;;;;20.95;31.75;100531.94;5015311;28;45626;-82
2022/05/31 12:28:48;;;;;;;;;1.25;0.00;;;;;20.87;31.47;100524.03;5013599;28;45691;-83
2022/05/31 12:31:24;;;;;;;;;0.75;0.75;;;;;20.85;31.41;100521.53;5013130;28;46876;-81
2022/05/31 12:33:50;;;;;;;;;2.75;2.75;;;;;20.92;31.44;100516.31;5013716;28;46558;-81
2022/05/31 12:36:21;;;;;;;;;4.00;3.00;;;;;21.03;31.54;100517.75;5013738;28;45728;-82
2022/05/31 12:38:54;;;;;;;;;1.50;1.50;;;;;21.13;31.14;100518.31;5014129;28;45748;-80
2022/05/31 12:41:40;;;;;;;;;1.00;1.00;;;;;21.19;31.16;100522.97;5013485;28;46398;-80
2022/05/31 12:44:26;;;;;;;;;2.00;2.00;;;;;21.13;31.15;100508.50;5022754;28;45725;-80
2022/05/31 12:46:53;;;;;;;;;2.50;2.00;;;;;21.18;30.72;100518.63;5035517;28;45576;-80
2022/05/31 12:49:24;;;;;;;;;3.00;2.00;;;;;21.20;31.27;100521.97;5035890;28;45475;-80
2022/05/31 12:52:09;;;;;;;;;1.50;1.25;;;;;21.26;30.94;100523.91;5035377;28;46820;-78
2022/05/31 12:54:47;;;;;;;;;2.00;2.00;;;;;21.28;30.86;100517.38;5035354;28;46493;-79
2022/05/31 12:57:21;;;;;;;;;2.00;2.00;;;;;21.25;30.68;100516.91;5035351;28;45640;-79
2022/05/31 12:59:49;;;;;;;;;2.00;2.00;;;;;21.26;30.90;100523.91;5035884;28;45636;-78
2022/05/31 13:02:22;;;;;;;;;3.50;2.00;;;;;21.26;30.36;100540.72;5034614;28;46536;-79
2022/05/31 13:04:58;;;;;;;;;2.00;2.00;;;;;21.23;30.59;100530.41;5037327;28;45605;-80